Langley, Canada
Current Conditions -  °F | °C
As of 7:00 AM on Saturday 22 Nov 2014 (Local Time) from CYXX Reporting Station
Rain Showers Rain Showers  
Wind Chill: 40°   Ceiling: 5000
Heat Index: 43°   Visibility: 15mi
Dew Point: 41°   Wind: 5mph
Humidity: 93%   Direction: 150°SSE
Pressure: 29.65"   Gusts: NA
Location:  49.1°N, 122.65°W
Report Text: CYXX 221500Z 15004KT 15SM -SHRA FEW010 FEW025 BKN050 BKN080 06/05 A2965 RMK SF1SC1SC5AC1 SF TR CVCTV CLD EMBD SLP041
Loading
Personal Weather Stations






























Interactive Weather Map New forecast layout! Learn more

10-Day Weather Forecast

Advertisements
Track Severe Weather on mobile